Walkinshaw, North Dakota
Current Conditions -  °F | °C
As of 12:53 PM on Monday 22 Dec 2014 (Local Time) from KFAR Reporting Station
Light Rain Light Rain  
Wind Chill: 35°   Ceiling: 700
Heat Index: 41°   Visibility: 8mi
Dew Point: 38°   Wind: 9mph
Humidity: 89%   Direction: 120°ESE
Pressure: 29.49"   Gusts: NA
Location:  47°N, 97°W
Report Text: KFAR 221853Z 12008KT 8SM -RA OVC007 05/03 A2949 RMK AO2 SLP995 P0001 T00500033
Loading
Personal Weather Stations






























Interactive Weather Map New forecast layout! Learn more

10-Day Weather Forecast

Advertisements
Track Severe Weather on mobile